Time;durP1;ratioP1;P1;durP2;ratioP2;P2;SDS_P1;SDS_P2;PMS_P1;PMS_P2;Temp;Humidity;BMP_temperature;BMP_pressure;BME280_temperature;BME280_humidity;BME280_pressure;Samples;Min_cycle;Max_cycle;Signal;HPM_P1;HPM_P2
2022/11/28 00:00:27;;;;;;;20.83;9.55;;;5.70;95.20;;;;;;4966484;28;20031;-66
2022/11/28 00:02:53;;;;;;;20.58;10.10;;;5.70;95.00;;;;;;4966300;28;20034;-68
2022/11/28 00:05:18;;;;;;;21.50;9.77;;;5.70;95.10;;;;;;4966956;28;20428;-68
2022/11/28 00:07:44;;;;;;;25.63;10.90;;;5.70;95.10;;;;;;4981751;28;20034;-68
2022/11/28 00:10:10;;;;;;;22.88;10.02;;;5.60;95.20;;;;;;4969134;28;20134;-66
2022/11/28 00:12:36;;;;;;;19.83;10.10;;;5.60;95.30;;;;;;4966767;28;20143;-66
2022/11/28 00:15:04;;;;;;;19.42;10.02;;;5.60;95.20;;;;;;4965354;28;20681;-65
2022/11/28 00:17:29;;;;;;;25.65;10.35;;;5.70;95.00;;;;;;4969032;28;20026;-66
2022/11/28 00:19:55;;;;;;;20.42;9.75;;;5.80;94.90;;;;;;4964390;28;20162;-65
2022/11/28 00:22:21;;;;;;;21.88;10.02;;;5.70;94.80;;;;;;4967879;28;20129;-66
2022/11/28 00:24:47;;;;;;;23.98;10.32;;;5.70;95.10;;;;;;4964083;28;20638;-66
2022/11/28 00:27:12;;;;;;;20.30;10.48;;;5.80;95.00;;;;;;4964460;28;20088;-66
2022/11/28 00:29:39;;;;;;;22.08;10.65;;;5.70;94.90;;;;;;4968212;28;20661;-67
2022/11/28 00:32:05;;;;;;;22.27;11.38;;;5.70;94.90;;;;;;4964780;28;20054;-66
2022/11/28 00:34:31;;;;;;;20.13;10.50;;;5.80;94.90;;;;;;4967926;28;20063;-66
2022/11/28 00:36:57;;;;;;;20.63;10.10;;;5.70;94.80;;;;;;4966343;28;20129;-66
2022/11/28 00:39:23;;;;;;;21.00;10.05;;;5.70;94.90;;;;;;4964995;28;20038;-66
2022/11/28 00:41:48;;;;;;;19.63;10.15;;;5.70;94.90;;;;;;4963284;28;20038;-67
2022/11/28 00:44:14;;;;;;;21.02;10.63;;;5.80;94.70;;;;;;4963691;28;20035;-66
2022/11/28 00:46:40;;;;;;;29.80;11.75;;;5.80;94.80;;;;;;4965730;28;20140;-65
2022/11/28 00:49:06;;;;;;;20.48;10.10;;;5.80;94.90;;;;;;4981768;28;20149;-65
2022/11/28 00:51:33;;;;;;;24.48;10.93;;;5.80;94.80;;;;;;4963521;28;20035;-65
2022/11/28 00:54:00;;;;;;;25.83;11.10;;;5.70;94.70;;;;;;4962848;28;20023;-65
2022/11/28 00:56:30;;;;;;;22.05;10.13;;;5.80;94.70;;;;;;4964086;28;20578;-64
2022/11/28 00:58:56;;;;;;;20.52;10.70;;;5.80;94.80;;;;;;4961796;28;20037;-65
2022/11/28 01:01:29;;;;;;;22.40;10.43;;;5.80;94.70;;;;;;4964043;28;20026;-65
2022/11/28 01:03:57;;;;;;;20.95;10.43;;;5.80;94.80;;;;;;4960505;28;20026;-67
2022/11/28 01:06:29;;;;;;;22.77;10.73;;;5.70;94.70;;;;;;4967182;28;20114;-66
2022/11/28 01:08:57;;;;;;;17.35;9.85;;;5.80;94.70;;;;;;4964570;28;20045;-65
2022/11/28 01:11:23;;;;;;;23.73;10.38;;;5.80;94.70;;;;;;4963979;28;20042;-66
2022/11/28 01:13:52;;;;;;;23.65;11.23;;;5.80;94.60;;;;;;4966564;28;20042;-66
2022/11/28 01:16:18;;;;;;;22.90;10.20;;;5.80;94.70;;;;;;4964650;28;20399;-66
2022/11/28 01:18:43;;;;;;;22.25;9.20;;;5.70;94.80;;;;;;4964286;28;20030;-66
2022/11/28 01:21:09;;;;;;;24.15;10.98;;;5.70;94.70;;;;;;4962691;28;20120;-66
2022/11/28 01:23:35;;;;;;;23.90;9.85;;;5.70;94.80;;;;;;4962297;28;20035;-66
2022/11/28 01:26:02;;;;;;;22.58;11.07;;;5.70;95.00;;;;;;4966985;28;20847;-66
2022/11/28 01:28:28;;;;;;;23.73;10.95;;;5.70;94.80;;;;;;4965148;28;20045;-66
2022/11/28 01:30:54;;;;;;;22.98;11.48;;;5.70;94.90;;;;;;4962953;28;20031;-66
2022/11/28 01:33:20;;;;;;;20.50;10.13;;;5.70;94.80;;;;;;4967445;28;20035;-66
2022/11/28 01:35:56;;;;;;;30.58;11.07;;;5.60;94.90;;;;;;4962190;28;20031;-66
2022/11/28 01:38:22;;;;;;;18.15;10.50;;;5.70;94.80;;;;;;4964026;28;20102;-66
2022/11/28 01:40:48;;;;;;;21.42;11.35;;;5.70;94.80;;;;;;4962447;28;20568;-66
2022/11/28 01:43:14;;;;;;;21.00;11.00;;;5.70;94.90;;;;;;4962608;28;20038;-66
2022/11/28 01:45:40;;;;;;;20.63;9.43;;;5.60;94.70;;;;;;4967161;28;20034;-66
2022/11/28 01:48:09;;;;;;;21.17;9.75;;;5.50;94.90;;;;;;4964373;28;20558;-66
2022/11/28 01:50:37;;;;;;;20.60;10.35;;;5.50;94.80;;;;;;4961046;28;20549;-66
2022/11/28 01:53:07;;;;;;;19.98;9.48;;;5.60;94.80;;;;;;4964329;28;20027;-66
2022/11/28 01:55:38;;;;;;;21.52;10.07;;;5.50;94.80;;;;;;4954898;28;20031;-66
2022/11/28 01:58:05;;;;;;;19.75;9.70;;;5.60;94.90;;;;;;4961437;28;20038;-66
2022/11/28 02:00:33;;;;;;;20.73;9.63;;;5.40;94.70;;;;;;4976994;28;20030;-66
2022/11/28 02:03:10;;;;;;;21.90;9.45;;;5.30;95.00;;;;;;4967972;28;20469;-66
2022/11/28 02:05:37;;;;;;;17.23;9.35;;;5.30;95.20;;;;;;4964327;28;20058;-66
2022/11/28 02:08:04;;;;;;;18.77;9.77;;;5.40;95.10;;;;;;4964433;28;20038;-66
2022/11/28 02:11:11;;;;;;;19.73;9.02;;;5.30;95.00;;;;;;4960852;28;20031;-66
2022/11/28 02:14:12;;;;;;;25.90;9.20;;;5.30;95.00;;;;;;4961651;28;20529;-66
2022/11/28 02:16:44;;;;;;;20.00;9.20;;;5.30;95.10;;;;;;4927529;28;20124;-66
2022/11/28 02:19:42;;;;;;;20.05;9.05;;;5.30;95.20;;;;;;4962394;28;20129;-66
2022/11/28 02:22:27;;;;;;;22.17;10.30;;;5.30;95.10;;;;;;4964362;28;20035;-66
2022/11/28 02:25:31;;;;;;;24.63;8.93;;;5.30;95.10;;;;;;4963323;28;20602;-66
2022/11/28 02:28:18;;;;;;;19.77;8.88;;;5.30;95.10;;;;;;4964702;28;20653;-65
2022/11/28 02:31:13;;;;;;;16.65;8.55;;;5.30;95.00;;;;;;4962810;28;20035;-66
2022/11/28 02:33:51;;;;;;;17.63;9.45;;;5.30;95.00;;;;;;4962736;28;20031;-66
2022/11/28 02:36:49;;;;;;;15.77;8.85;;;5.10;95.10;;;;;;4963558;28;20035;-66
2022/11/28 02:39:48;;;;;;;24.85;9.88;;;5.00;95.20;;;;;;4954180;28;20039;-66
2022/11/28 02:42:19;;;;;;;18.58;8.45;;;5.10;95.20;;;;;;4968835;28;20599;-66
2022/11/28 02:44:57;;;;;;;19.25;8.65;;;5.00;95.10;;;;;;4964156;28;20101;-66
2022/11/28 02:47:31;;;;;;;17.85;9.77;;;5.10;95.20;;;;;;4970627;28;20495;-66
2022/11/28 02:50:20;;;;;;;15.57;8.70;;;5.10;95.00;;;;;;4963061;28;20039;-65
2022/11/28 02:53:18;;;;;;;20.13;9.23;;;5.10;94.90;;;;;;4966588;28;20045;-66
2022/11/28 02:55:44;;;;;;;16.58;9.43;;;5.20;94.80;;;;;;4964914;28;20027;-66
2022/11/28 02:58:11;;;;;;;20.15;8.82;;;5.10;94.60;;;;;;4962109;28;20037;-66
2022/11/28 03:00:42;;;;;;;19.85;9.27;;;5.20;94.80;;;;;;4970733;28;20038;-66
2022/11/28 03:03:24;;;;;;;18.50;9.35;;;5.10;94.80;;;;;;4965859;28;20058;-66
2022/11/28 03:06:00;;;;;;;19.65;9.07;;;5.10;94.80;;;;;;4967933;28;20765;-66
2022/11/28 03:09:16;;;;;;;16.15;9.13;;;5.20;94.80;;;;;;4967873;28;20767;-66
2022/11/28 03:11:47;;;;;;;16.98;8.30;;;5.20;94.50;;;;;;4965211;28;20049;-66
2022/11/28 03:14:23;;;;;;;15.55;8.15;;;5.20;94.50;;;;;;4965724;28;20018;-66
2022/11/28 03:17:09;;;;;;;18.75;9.20;;;5.20;94.50;;;;;;4964426;28;20031;-66
2022/11/28 03:19:48;;;;;;;16.80;8.63;;;5.10;94.40;;;;;;4946408;28;20069;-66
2022/11/28 03:23:00;;;;;;;14.32;8.73;;;5.10;94.60;;;;;;4966460;28;20050;-66
2022/11/28 03:25:47;;;;;;;15.75;8.50;;;5.10;94.60;;;;;;4967205;28;20406;-65
2022/11/28 03:28:19;;;;;;;20.25;9.48;;;5.00;94.60;;;;;;4966233;28;20109;-67
2022/11/28 03:30:59;;;;;;;19.20;9.05;;;4.90;94.60;;;;;;4965658;28;20045;-65
2022/11/28 03:33:29;;;;;;;20.63;9.38;;;4.90;94.70;;;;;;4964682;28;20483;-65
2022/11/28 03:36:03;;;;;;;18.92;9.57;;;4.80;94.80;;;;;;4959596;28;20141;-65
2022/11/28 03:38:43;;;;;;;17.88;8.68;;;4.80;94.80;;;;;;4965532;28;20475;-65
2022/11/28 03:41:24;;;;;;;22.65;9.18;;;4.80;94.90;;;;;;4979931;28;20041;-65
2022/11/28 03:43:53;;;;;;;20.05;10.10;;;4.60;95.10;;;;;;4968260;28;20026;-65
2022/11/28 03:46:22;;;;;;;17.95;9.75;;;4.60;95.30;;;;;;4968208;28;20610;-65
2022/11/28 03:48:52;;;;;;;19.02;9.95;;;4.70;95.40;;;;;;4964810;28;20053;-65
2022/11/28 03:51:24;;;;;;;19.88;10.45;;;4.60;95.20;;;;;;4965690;28;20505;-65
2022/11/28 03:53:55;;;;;;;18.10;9.55;;;4.50;95.50;;;;;;4962638;28;20422;-65
2022/11/28 03:56:37;;;;;;;17.38;9.07;;;4.60;95.50;;;;;;4968920;28;20031;-65
2022/11/28 03:59:12;;;;;;;18.58;10.13;;;4.70;95.70;;;;;;4965202;28;20027;-65
2022/11/28 04:01:58;;;;;;;16.27;8.85;;;4.70;95.20;;;;;;4965962;28;20038;-66
2022/11/28 04:04:32;;;;;;;22.50;10.90;;;4.70;95.10;;;;;;4969651;28;20035;-65
2022/11/28 04:07:21;;;;;;;22.42;10.25;;;4.70;95.40;;;;;;4964767;28;20125;-65
2022/11/28 04:09:52;;;;;;;17.98;9.35;;;4.60;95.40;;;;;;4963721;28;20034;-65
2022/11/28 04:12:39;;;;;;;22.27;10.23;;;4.70;95.30;;;;;;4962614;28;20297;-65
2022/11/28 04:15:14;;;;;;;19.15;9.80;;;4.60;95.30;;;;;;4966525;28;20030;-65
2022/11/28 04:17:57;;;;;;;23.60;10.77;;;4.60;95.30;;;;;;4965026;28;20597;-65
2022/11/28 04:20:51;;;;;;;18.75;9.02;;;4.60;95.30;;;;;;4965528;28;20046;-65
2022/11/28 04:23:20;;;;;;;23.75;10.23;;;4.70;95.20;;;;;;4968458;28;20031;-65
2022/11/28 04:25:52;;;;;;;21.38;10.45;;;4.60;95.30;;;;;;4964337;28;20729;-65
2022/11/28 04:28:22;;;;;;;21.45;10.65;;;4.60;95.60;;;;;;4964534;28;20097;-65
2022/11/28 04:30:50;;;;;;;19.38;9.38;;;4.60;95.40;;;;;;4963833;28;20027;-65
2022/11/28 04:33:20;;;;;;;22.45;9.30;;;4.70;95.40;;;;;;4967564;28;20018;-65
2022/11/28 04:35:49;;;;;;;20.23;9.60;;;4.70;95.40;;;;;;4968504;28;20034;-65
2022/11/28 04:38:16;;;;;;;22.00;10.15;;;4.80;95.40;;;;;;4964059;28;20030;-65
2022/11/28 04:40:51;;;;;;;20.05;9.60;;;4.70;95.30;;;;;;4968888;28;20026;-65
2022/11/28 04:43:23;;;;;;;21.87;9.70;;;4.70;95.50;;;;;;4966549;28;20042;-66
2022/11/28 04:45:54;;;;;;;18.88;9.25;;;4.70;95.50;;;;;;4964410;28;20050;-66
2022/11/28 04:48:20;;;;;;;23.33;10.05;;;4.70;95.30;;;;;;4964968;28;20546;-66
2022/11/28 04:50:58;;;;;;;18.80;9.63;;;4.80;95.30;;;;;;4962440;28;20027;-66
2022/11/28 04:53:33;;;;;;;20.08;9.80;;;4.90;95.00;;;;;;4970735;28;20163;-66
2022/11/28 04:56:03;;;;;;;20.90;9.52;;;4.80;95.00;;;;;;4965143;28;20380;-66
2022/11/28 04:58:37;;;;;;;13.73;8.40;;;4.80;95.10;;;;;;4967494;28;20617;-66
2022/11/28 05:01:06;;;;;;;14.65;8.45;;;4.90;95.10;;;;;;4963913;28;20758;-66
2022/11/28 05:03:33;;;;;;;20.75;9.02;;;4.90;94.80;;;;;;4964463;28;20031;-66
2022/11/28 05:06:00;;;;;;;19.38;9.18;;;4.90;94.80;;;;;;4964477;28;20066;-66
2022/11/28 05:08:26;;;;;;;19.90;9.77;;;5.00;94.80;;;;;;4963977;28;20038;-66
2022/11/28 05:10:52;;;;;;;16.73;8.82;;;4.90;94.70;;;;;;4965617;28;20932;-66
2022/11/28 05:13:18;;;;;;;22.63;10.25;;;4.90;94.90;;;;;;4966834;28;20038;-66
2022/11/28 05:15:44;;;;;;;16.35;8.18;;;4.90;95.10;;;;;;4963462;28;20034;-66
2022/11/28 05:18:09;;;;;;;17.70;8.35;;;4.80;95.00;;;;;;4967252;28;20118;-66
2022/11/28 05:20:37;;;;;;;17.80;8.27;;;4.90;95.10;;;;;;4965474;28;20034;-66
2022/11/28 05:23:03;;;;;;;17.90;9.23;;;4.90;94.80;;;;;;4962619;28;20062;-66
2022/11/28 05:25:28;;;;;;;14.63;7.90;;;5.00;94.70;;;;;;4964627;28;20534;-66
2022/11/28 05:27:54;;;;;;;15.90;8.73;;;4.90;94.50;;;;;;4961237;28;20041;-66
2022/11/28 05:30:20;;;;;;;19.17;9.35;;;5.00;94.50;;;;;;4966875;28;20071;-66
2022/11/28 05:32:46;;;;;;;20.48;9.20;;;4.90;94.50;;;;;;4965037;28;20027;-66
2022/11/28 05:35:12;;;;;;;19.40;8.60;;;4.90;94.90;;;;;;4961852;28;20128;-66
2022/11/28 05:37:38;;;;;;;19.13;9.43;;;4.80;95.20;;;;;;4967975;28;20105;-66
2022/11/28 05:40:04;;;;;;;14.82;7.93;;;4.70;95.20;;;;;;4963880;28;20023;-66
2022/11/28 05:42:34;;;;;;;18.60;8.95;;;4.70;95.10;;;;;;4964485;28;20080;-66
2022/11/28 05:45:00;;;;;;;17.17;8.70;;;4.70;95.30;;;;;;4978079;28;20062;-66
2022/11/28 05:47:30;;;;;;;18.58;9.13;;;4.80;95.20;;;;;;4962330;28;20852;-66
2022/11/28 05:49:55;;;;;;;19.77;9.38;;;4.70;95.10;;;;;;4959783;28;20122;-66
2022/11/28 05:52:21;;;;;;;17.83;8.63;;;4.80;95.20;;;;;;4959650;28;20023;-66
2022/11/28 05:54:47;;;;;;;17.73;8.68;;;4.90;95.00;;;;;;4961882;28;20511;-66
2022/11/28 05:57:13;;;;;;;15.57;8.05;;;4.90;94.80;;;;;;4965132;28;20563;-66
2022/11/28 05:59:38;;;;;;;19.42;8.45;;;4.80;95.10;;;;;;4963249;28;20811;-66
2022/11/28 06:02:04;;;;;;;17.92;8.10;;;4.80;95.20;;;;;;4961470;28;20039;-66
2022/11/28 06:04:30;;;;;;;19.90;9.65;;;4.90;94.90;;;;;;4961919;28;20141;-66
2022/11/28 06:06:56;;;;;;;15.75;7.95;;;4.90;94.80;;;;;;4960654;28;20844;-66
2022/11/28 06:09:22;;;;;;;18.10;8.32;;;4.80;95.20;;;;;;4960229;28;20050;-66
2022/11/28 06:11:48;;;;;;;19.23;8.90;;;4.80;94.90;;;;;;4959374;28;20035;-66
2022/11/28 06:14:13;;;;;;;17.38;8.73;;;4.90;95.00;;;;;;4965320;28;20042;-66
2022/11/28 06:16:41;;;;;;;17.77;8.40;;;4.80;94.90;;;;;;4965654;28;20054;-66
2022/11/28 06:19:10;;;;;;;19.25;9.15;;;4.90;95.10;;;;;;4965717;28;20807;-66
2022/11/28 06:21:36;;;;;;;18.27;8.63;;;4.80;95.10;;;;;;4963783;28;20035;-66
2022/11/28 06:24:01;;;;;;;16.83;8.65;;;4.80;95.00;;;;;;4964563;28;20034;-65
2022/11/28 06:26:28;;;;;;;19.83;9.32;;;4.70;95.10;;;;;;4965009;28;20804;-66
2022/11/28 06:28:57;;;;;;;19.77;8.85;;;4.70;95.10;;;;;;4968726;28;20073;-66
2022/11/28 06:31:28;;;;;;;21.27;9.68;;;4.70;95.10;;;;;;4965692;28;20030;-66
2022/11/28 06:33:55;;;;;;;21.73;9.15;;;4.80;95.00;;;;;;4964706;28;20023;-66
2022/11/28 06:36:20;;;;;;;19.55;9.57;;;4.80;94.90;;;;;;4965071;28;20085;-66
2022/11/28 06:38:47;;;;;;;17.88;8.75;;;4.80;95.00;;;;;;4980722;28;20031;-66
2022/11/28 06:41:16;;;;;;;18.88;9.13;;;4.80;95.00;;;;;;4964715;28;20031;-66
2022/11/28 06:43:42;;;;;;;17.42;8.25;;;4.80;95.10;;;;;;4952606;28;20042;-69
2022/11/28 06:46:12;;;;;;;19.05;8.88;;;4.70;95.10;;;;;;4963974;28;20042;-66
2022/11/28 06:48:38;;;;;;;18.88;9.50;;;4.70;95.40;;;;;;4967008;28;20122;-66
2022/11/28 06:51:05;;;;;;;22.45;9.52;;;4.80;95.30;;;;;;4963013;28;20477;-65
2022/11/28 06:53:32;;;;;;;22.73;9.98;;;4.80;95.00;;;;;;4963761;28;20019;-65
2022/11/28 06:56:07;;;;;;;18.65;9.10;;;4.80;95.10;;;;;;4963623;28;20403;-66
2022/11/28 06:58:34;;;;;;;19.60;9.23;;;4.90;95.00;;;;;;4963699;28;20041;-65
2022/11/28 07:01:12;;;;;;;23.63;10.35;;;4.90;94.80;;;;;;4964366;28;20906;-65
2022/11/28 07:03:39;;;;;;;17.35;9.50;;;4.90;94.90;;;;;;4966764;28;20117;-66
2022/11/28 07:06:06;;;;;;;19.85;9.68;;;5.00;94.90;;;;;;4965372;28;20031;-66
2022/11/28 07:08:32;;;;;;;18.33;9.23;;;4.90;94.70;;;;;;4964176;28;20030;-66
2022/11/28 07:11:16;;;;;;;22.50;10.40;;;4.90;94.80;;;;;;4978938;28;20561;-66
2022/11/28 07:13:44;;;;;;;22.55;9.43;;;5.00;94.80;;;;;;4962573;28;20057;-66
2022/11/28 07:16:31;;;;;;;21.75;9.38;;;4.90;94.80;;;;;;4978870;28;20883;-66
2022/11/28 07:18:57;;;;;;;21.00;10.18;;;4.80;95.10;;;;;;4963547;28;20038;-67
2022/11/28 07:21:24;;;;;;;19.50;9.05;;;4.80;95.10;;;;;;4963240;28;20055;-67
2022/11/28 07:23:50;;;;;;;22.27;9.57;;;4.80;95.00;;;;;;4962450;28;20035;-67
2022/11/28 07:26:18;;;;;;;22.88;9.93;;;4.80;95.20;;;;;;4964459;28;20743;-66
2022/11/28 07:28:45;;;;;;;21.08;10.23;;;4.90;95.20;;;;;;4964149;28;20042;-66
2022/11/28 07:31:17;;;;;;;20.90;9.68;;;5.00;95.10;;;;;;4962151;28;20027;-64
2022/11/28 07:33:45;;;;;;;22.05;10.05;;;5.00;94.60;;;;;;4964843;28;20121;-66
2022/11/28 07:36:23;;;;;;;21.88;10.15;;;5.00;94.90;;;;;;4964455;28;20615;-68
2022/11/28 07:38:51;;;;;;;21.35;10.05;;;4.90;94.90;;;;;;4963499;28;20034;-69
2022/11/28 07:41:18;;;;;;;19.67;9.35;;;4.90;95.10;;;;;;4963825;28;20111;-67
2022/11/28 07:43:46;;;;;;;26.90;11.77;;;4.90;95.20;;;;;;4968797;28;20036;-65
2022/11/28 07:46:15;;;;;;;22.77;10.65;;;4.90;95.40;;;;;;4965110;28;20031;-66
2022/11/28 07:48:41;;;;;;;24.15;10.27;;;4.80;95.20;;;;;;4968213;28;20041;-66
2022/11/28 07:51:18;;;;;;;24.15;10.77;;;4.80;95.30;;;;;;4959013;28;20049;-67
2022/11/28 07:53:45;;;;;;;24.60;9.93;;;4.90;95.40;;;;;;4963248;28;20031;-67
2022/11/28 07:56:16;;;;;;;16.80;9.88;;;5.00;95.00;;;;;;4963438;28;20030;-66
2022/11/28 07:58:44;;;;;;;20.17;10.98;;;5.10;94.90;;;;;;4962555;28;20034;-67
2022/11/28 08:01:11;;;;;;;23.20;10.43;;;5.10;94.70;;;;;;4963611;28;20657;-74
2022/11/28 08:03:37;;;;;;;23.42;10.57;;;4.90;95.20;;;;;;4968526;28;20546;-66
2022/11/28 08:06:04;;;;;;;26.52;12.13;;;4.80;95.20;;;;;;4962971;28;20027;-66
2022/11/28 08:08:30;;;;;;;22.75;10.52;;;5.00;95.40;;;;;;4968169;28;20768;-69
2022/11/28 08:10:57;;;;;;;20.50;9.80;;;5.00;95.00;;;;;;4963367;28;20023;-66
2022/11/28 08:13:23;;;;;;;22.15;10.15;;;5.00;94.90;;;;;;4963134;28;20069;-66
2022/11/28 08:15:49;;;;;;;23.63;11.65;;;5.00;94.90;;;;;;4961633;28;20054;-66
2022/11/28 08:18:15;;;;;;;24.63;10.88;;;5.20;95.00;;;;;;4963412;28;20027;-66
2022/11/28 08:20:40;;;;;;;21.48;10.70;;;5.30;94.80;;;;;;4965713;28;20800;-66
2022/11/28 08:23:06;;;;;;;24.50;10.95;;;5.30;94.60;;;;;;4963151;28;20031;-66
2022/11/28 08:25:32;;;;;;;23.75;12.80;;;5.40;94.40;;;;;;4977530;28;20037;-65
2022/11/28 08:27:58;;;;;;;24.50;10.68;;;5.40;94.20;;;;;;4962598;28;20034;-67
2022/11/28 08:30:24;;;;;;;22.00;10.85;;;5.40;94.30;;;;;;4962300;28;20027;-65
2022/11/28 08:32:50;;;;;;;23.67;10.27;;;5.40;94.40;;;;;;4962991;28;20038;-66
2022/11/28 08:35:19;;;;;;;24.52;11.48;;;5.40;94.70;;;;;;4961340;28;20060;-66
2022/11/28 08:37:45;;;;;;;22.27;10.85;;;5.40;94.30;;;;;;4958730;28;20027;-66
2022/11/28 08:40:11;;;;;;;20.85;10.32;;;5.60;94.10;;;;;;4962448;28;20042;-66
2022/11/28 08:42:37;;;;;;;22.08;11.05;;;5.70;93.90;;;;;;4962343;28;20030;-66
2022/11/28 08:45:05;;;;;;;25.67;10.90;;;5.80;93.70;;;;;;4969419;28;20407;-67
2022/11/28 08:47:31;;;;;;;22.27;10.23;;;5.70;93.70;;;;;;4978937;28;20042;-66
2022/11/28 08:49:57;;;;;;;22.70;11.60;;;5.70;93.90;;;;;;4962403;28;20042;-65
2022/11/28 08:52:23;;;;;;;25.23;10.90;;;5.70;93.70;;;;;;4961890;28;20035;-65
2022/11/28 08:54:49;;;;;;;19.95;9.73;;;5.80;93.80;;;;;;4962593;28;20026;-65
2022/11/28 08:57:15;;;;;;;24.40;10.45;;;5.80;93.60;;;;;;4962222;28;20037;-62
2022/11/28 08:59:41;;;;;;;22.15;11.63;;;5.90;93.30;;;;;;4959273;28;20783;-66
2022/11/28 09:02:09;;;;;;;22.88;10.13;;;5.90;93.20;;;;;;4962470;28;20041;-66
2022/11/28 09:04:35;;;;;;;21.60;10.05;;;6.00;92.80;;;;;;4974622;28;20031;-66
2022/11/28 09:07:01;;;;;;;20.63;9.90;;;6.00;93.20;;;;;;4961505;28;20033;-66
2022/11/28 09:09:28;;;;;;;23.35;10.35;;;6.10;93.10;;;;;;4958764;28;20047;-66
2022/11/28 09:11:53;;;;;;;22.23;10.65;;;6.10;92.70;;;;;;4956919;28;20039;-65
2022/11/28 09:14:19;;;;;;;21.88;10.70;;;6.10;92.60;;;;;;4959888;28;20038;-66
2022/11/28 09:16:45;;;;;;;19.00;10.55;;;5.90;93.00;;;;;;4962381;28;20062;-66
2022/11/28 09:19:11;;;;;;;20.80;9.60;;;6.00;93.10;;;;;;4964479;28;20029;-66
2022/11/28 09:21:37;;;;;;;20.45;10.05;;;6.10;93.20;;;;;;4962902;28;20827;-66
2022/11/28 09:24:04;;;;;;;24.70;10.52;;;6.20;93.00;;;;;;4956366;28;20034;-65
2022/11/28 09:26:29;;;;;;;23.70;11.02;;;6.30;92.70;;;;;;4959723;28;20042;-66
2022/11/28 09:28:55;;;;;;;18.88;9.60;;;6.40;92.90;;;;;;4961232;28;20045;-66
2022/11/28 09:31:21;;;;;;;19.02;9.65;;;6.40;92.50;;;;;;4961491;28;20038;-66
2022/11/28 09:33:48;;;;;;;20.02;9.32;;;6.40;92.40;;;;;;4961933;28;20591;-67
2022/11/28 09:36:21;;;;;;;15.88;8.68;;;6.30;92.20;;;;;;4961362;28;20126;-66
2022/11/28 09:38:48;;;;;;;19.70;10.10;;;6.50;92.10;;;;;;4960159;28;20047;-66
2022/11/28 09:41:32;;;;;;;19.73;10.07;;;6.40;91.70;;;;;;4961314;28;20035;-66
2022/11/28 09:44:21;;;;;;;20.02;9.27;;;6.50;92.00;;;;;;4958904;28;20247;-67
2022/11/28 09:46:50;;;;;;;21.20;10.50;;;6.60;91.70;;;;;;4955885;28;20058;-64
2022/11/28 09:49:31;;;;;;;20.98;9.07;;;6.60;92.00;;;;;;4961242;28;20033;-63
2022/11/28 09:52:19;;;;;;;19.60;9.52;;;6.40;91.80;;;;;;4973996;28;20083;-65
2022/11/28 09:54:51;;;;;;;20.15;10.98;;;6.40;92.20;;;;;;4966888;28;20053;-65
2022/11/28 09:57:38;;;;;;;18.80;10.05;;;6.40;92.50;;;;;;4960843;28;20849;-69
2022/11/28 10:00:10;;;;;;;22.08;10.40;;;6.30;92.40;;;;;;4959948;28;20027;-63
2022/11/28 10:02:42;;;;;;;19.83;10.70;;;6.30;92.60;;;;;;4957887;28;20046;-66
2022/11/28 10:05:27;;;;;;;21.33;10.13;;;6.30;92.60;;;;;;4960507;28;20093;-66
2022/11/28 10:08:19;;;;;;;20.70;10.23;;;6.40;92.20;;;;;;4961052;28;20034;-68
2022/11/28 10:11:10;;;;;;;20.00;9.68;;;6.40;92.00;;;;;;4954084;28;20058;-67
2022/11/28 10:13:50;;;;;;;18.45;9.15;;;6.40;92.10;;;;;;4957127;28;20770;-67
2022/11/28 10:16:54;;;;;;;23.42;10.50;;;6.50;91.80;;;;;;4960884;28;20113;-67
2022/11/28 10:19:39;;;;;;;20.88;9.90;;;6.60;91.60;;;;;;4952424;28;20506;-67
2022/11/28 10:22:15;;;;;;;18.55;9.23;;;6.30;91.90;;;;;;4959116;28;20066;-67
2022/11/28 10:24:49;;;;;;;22.58;10.07;;;6.20;92.20;;;;;;4958743;28;20030;-71
2022/11/28 10:27:16;;;;;;;21.02;9.70;;;6.30;92.50;;;;;;4960197;28;20034;-66
2022/11/28 10:30:00;;;;;;;31.38;11.85;;;6.40;92.20;;;;;;4960865;28;20042;-66
2022/11/28 10:32:40;;;;;;;21.58;9.60;;;6.40;92.00;;;;;;4962813;28;20466;-67
2022/11/28 10:35:39;;;;;;;19.77;10.25;;;6.60;92.30;;;;;;4957824;28;20107;-66
2022/11/28 10:38:11;;;;;;;20.13;9.50;;;6.60;91.90;;;;;;4956829;28;20534;-67
2022/11/28 10:40:54;;;;;;;23.05;10.90;;;6.70;91.60;;;;;;4958611;28;20159;-67
2022/11/28 10:43:26;;;;;;;19.63;10.88;;;6.80;91.70;;;;;;4960073;28;20412;-67
2022/11/28 10:46:10;;;;;;;19.20;9.70;;;6.80;91.70;;;;;;4961744;28;20035;-66
2022/11/28 10:48:51;;;;;;;18.65;9.15;;;7.00;91.50;;;;;;4958953;28;20472;-66
2022/11/28 10:51:16;;;;;;;19.85;9.77;;;7.00;91.50;;;;;;4961098;28;20750;-66
2022/11/28 10:53:58;;;;;;;20.40;10.15;;;7.10;91.40;;;;;;4960495;28;20031;-67
2022/11/28 10:56:45;;;;;;;21.65;10.00;;;7.10;91.30;;;;;;4959739;28;20042;-66
2022/11/28 10:59:10;;;;;;;;;;;7.10;91.30;;;;;;4964950;28;20023;-66
2022/11/28 11:01:38;;;;;;;17.37;9.37;;;7.20;91.00;;;;;;4965033;28;20429;-66
2022/11/28 11:04:05;;;;;;;19.98;9.00;;;7.30;90.90;;;;;;4963552;28;20023;-66
2022/11/28 11:06:31;;;;;;;20.35;9.85;;;7.30;90.80;;;;;;4964877;28;20675;-66
2022/11/28 11:08:56;;;;;;;19.00;9.13;;;7.30;90.30;;;;;;4964291;28;20035;-66
2022/11/28 11:11:29;;;;;;;23.38;9.77;;;7.10;90.70;;;;;;4966010;28;20043;-66
2022/11/28 11:13:57;;;;;;;21.05;9.95;;;7.00;90.90;;;;;;4963805;28;20023;-65
2022/11/28 11:16:22;;;;;;;18.15;9.43;;;7.00;90.70;;;;;;4963337;28;20121;-65
2022/11/28 11:18:48;;;;;;;19.17;9.52;;;7.00;91.20;;;;;;4963177;28;20035;-66
2022/11/28 11:21:25;;;;;;;21.10;9.50;;;7.00;90.70;;;;;;4964580;28;20781;-65
2022/11/28 11:24:15;;;;;;;21.70;10.63;;;6.90;90.80;;;;;;4962359;28;20186;-65
2022/11/28 11:26:46;;;;;;;27.30;11.10;;;6.90;91.30;;;;;;4963640;28;20034;-70
2022/11/28 11:29:27;;;;;;;25.02;10.00;;;6.80;91.30;;;;;;4961192;28;20030;-70
2022/11/28 11:31:53;;;;;;;21.05;10.18;;;6.70;91.60;;;;;;4961489;28;20043;-69
2022/11/28 11:34:22;;;;;;;18.92;9.68;;;6.80;91.50;;;;;;4963850;28;20708;-71
2022/11/28 11:36:49;;;;;;;20.13;10.43;;;6.90;91.20;;;;;;4964318;28;20747;-70
2022/11/28 11:39:19;;;;;;;16.98;8.80;;;6.90;91.00;;;;;;4964209;28;20031;-69
2022/11/28 11:41:58;;;;;;;20.90;9.82;;;7.00;91.10;;;;;;4964986;28;20034;-72
2022/11/28 11:44:35;;;;;;;18.00;9.20;;;6.90;91.10;;;;;;4967014;28;20781;-67
2022/11/28 11:47:05;;;;;;;22.92;10.05;;;7.10;91.00;;;;;;4959789;28;20065;-67
2022/11/28 11:49:36;;;;;;;23.08;10.27;;;7.10;90.90;;;;;;4961661;28;20458;-65
2022/11/28 11:52:14;;;;;;;22.60;10.48;;;7.10;91.00;;;;;;4961188;28;20160;-66
2022/11/28 11:54:57;;;;;;;18.10;8.82;;;7.10;91.00;;;;;;4965284;28;20026;-66
2022/11/28 11:57:24;;;;;;;18.00;9.15;;;7.20;90.80;;;;;;4960009;28;20526;-66
2022/11/28 11:59:53;;;;;;;20.75;9.77;;;7.30;90.70;;;;;;4959963;28;20043;-65
2022/11/28 12:02:44;;;;;;;21.20;9.65;;;7.20;90.70;;;;;;4959800;28;20050;-64
2022/11/28 12:05:26;;;;;;;20.17;9.25;;;7.00;91.00;;;;;;4962095;28;20406;-65
2022/11/28 12:08:10;;;;;;;21.05;9.82;;;7.00;91.30;;;;;;4964530;28;20031;-66
2022/11/28 12:10:47;;;;;;;20.58;9.80;;;7.20;91.00;;;;;;4962833;28;20046;-65
2022/11/28 12:13:20;;;;;;;22.67;10.18;;;7.10;90.90;;;;;;4960004;28;20031;-66
2022/11/28 12:16:04;;;;;;;21.00;9.55;;;7.10;91.00;;;;;;4963078;28;20093;-65
2022/11/28 12:18:54;;;;;;;19.35;9.20;;;7.20;90.90;;;;;;4949464;28;20039;-65
2022/11/28 12:21:36;;;;;;;22.45;10.25;;;7.10;91.00;;;;;;4963024;28;20044;-65
2022/11/28 12:24:12;;;;;;;19.17;9.45;;;7.10;90.90;;;;;;4961124;28;20054;-65
2022/11/28 12:26:41;;;;;;;18.75;9.45;;;7.10;91.30;;;;;;4959132;28;20042;-66
2022/11/28 12:29:25;;;;;;;21.02;9.55;;;7.10;91.10;;;;;;4956779;28;20029;-67
2022/11/28 12:31:54;;;;;;;16.05;8.70;;;7.10;91.00;;;;;;4958531;28;20588;-67
2022/11/28 12:34:31;;;;;;;17.73;9.13;;;7.10;90.80;;;;;;4961356;28;20850;-67
2022/11/28 12:37:25;;;;;;;21.73;9.57;;;7.10;91.10;;;;;;4961610;28;20765;-66
2022/11/28 12:40:28;;;;;;;22.85;9.77;;;7.00;91.20;;;;;;4960493;28;20315;-66
2022/11/28 12:43:03;;;;;;;19.23;9.68;;;7.10;91.30;;;;;;4961133;28;20065;-67
2022/11/28 12:45:35;;;;;;;19.48;9.30;;;7.20;91.10;;;;;;4962390;28;20031;-68
2022/11/28 12:48:22;;;;;;;18.27;8.95;;;7.20;90.70;;;;;;4960156;28;20506;-67
2022/11/28 12:50:55;;;;;;;17.00;8.52;;;7.20;90.90;;;;;;4959137;28;20434;-67
2022/11/28 12:53:46;;;;;;;17.20;8.80;;;7.30;90.60;;;;;;4961595;28;20085;-67
2022/11/28 12:56:27;;;;;;;17.17;8.77;;;7.40;90.60;;;;;;4962315;28;20089;-67
2022/11/28 12:59:13;;;;;;;22.35;9.20;;;7.40;90.30;;;;;;4962365;28;20027;-67
2022/11/28 13:01:44;;;;;;;19.08;8.75;;;7.20;90.50;;;;;;4960423;28;20027;-68
2022/11/28 13:04:16;;;;;;;19.45;8.65;;;7.20;90.80;;;;;;4953763;28;20070;-65
2022/11/28 13:06:51;;;;;;;18.10;8.15;;;7.30;90.80;;;;;;4961949;28;20911;-65
2022/11/28 13:09:25;;;;;;;20.15;9.70;;;7.40;90.80;;;;;;4960802;28;20041;-67